sensor_id;sensor_type;location;lat;lon;timestamp;temperature;humidity
19928;DHT22;10126;50.876;4.470;2022-11-20T00:00:44;4.80;99.90
19928;DHT22;10126;50.876;4.470;2022-11-20T00:02:45;5.00;99.90
19928;DHT22;10126;50.876;4.470;2022-11-20T00:04:45;5.20;99.90
19928;DHT22;10126;50.876;4.470;2022-11-20T00:06:46;5.30;99.90
19928;DHT22;10126;50.876;4.470;2022-11-20T00:08:48;5.20;99.90
19928;DHT22;10126;50.876;4.470;2022-11-20T00:10:48;5.20;99.90
19928;DHT22;10126;50.876;4.470;2022-11-20T00:12:49;5.20;99.90
19928;DHT22;10126;50.876;4.470;2022-11-20T00:14:50;5.30;99.90
19928;DHT22;10126;50.876;4.470;2022-11-20T00:16:50;5.40;99.90
19928;DHT22;10126;50.876;4.470;2022-11-20T00:18:51;5.50;99.90
19928;DHT22;10126;50.876;4.470;2022-11-20T00:20:52;5.50;99.90
19928;DHT22;10126;50.876;4.470;2022-11-20T00:22:52;5.60;99.90
19928;DHT22;10126;50.876;4.470;2022-11-20T00:24:53;5.50;99.90
19928;DHT22;10126;50.876;4.470;2022-11-20T00:26:54;5.50;99.90
19928;DHT22;10126;50.876;4.470;2022-11-20T00:28:56;5.70;99.90
19928;DHT22;10126;50.876;4.470;2022-11-20T00:31:02;5.20;99.90
19928;DHT22;10126;50.876;4.470;2022-11-20T00:33:03;5.00;99.90
19928;DHT22;10126;50.876;4.470;2022-11-20T00:35:04;5.00;99.90
19928;DHT22;10126;50.876;4.470;2022-11-20T00:37:04;5.20;99.90
19928;DHT22;10126;50.876;4.470;2022-11-20T00:39:05;5.30;99.90
19928;DHT22;10126;50.876;4.470;2022-11-20T00:41:08;5.00;99.90
19928;DHT22;10126;50.876;4.470;2022-11-20T00:43:09;5.10;99.90
19928;DHT22;10126;50.876;4.470;2022-11-20T00:45:10;5.30;99.90
19928;DHT22;10126;50.876;4.470;2022-11-20T00:47:10;5.20;99.90
19928;DHT22;10126;50.876;4.470;2022-11-20T00:49:11;5.10;99.90
19928;DHT22;10126;50.876;4.470;2022-11-20T00:51:17;5.00;99.90
19928;DHT22;10126;50.876;4.470;2022-11-20T00:53:18;5.10;99.90
19928;DHT22;10126;50.876;4.470;2022-11-20T00:55:19;5.30;99.90
19928;DHT22;10126;50.876;4.470;2022-11-20T00:57:19;5.30;99.90
19928;DHT22;10126;50.876;4.470;2022-11-20T00:59:20;5.30;99.90
19928;DHT22;10126;50.876;4.470;2022-11-20T01:01:23;5.40;99.90
19928;DHT22;10126;50.876;4.470;2022-11-20T01:03:26;5.30;99.90
19928;DHT22;10126;50.876;4.470;2022-11-20T01:05:27;5.50;99.90
19928;DHT22;10126;50.876;4.470;2022-11-20T01:07:28;5.40;99.90
19928;DHT22;10126;50.876;4.470;2022-11-20T01:09:28;5.40;99.90
19928;DHT22;10126;50.876;4.470;2022-11-20T01:11:31;5.50;99.90
19928;DHT22;10126;50.876;4.470;2022-11-20T01:13:33;5.50;99.90
19928;DHT22;10126;50.876;4.470;2022-11-20T01:15:39;5.60;99.90
19928;DHT22;10126;50.876;4.470;2022-11-20T01:17:40;5.40;99.90
19928;DHT22;10126;50.876;4.470;2022-11-20T01:19:41;5.20;99.90
19928;DHT22;10126;50.876;4.470;2022-11-20T01:21:42;5.30;99.90
19928;DHT22;10126;50.876;4.470;2022-11-20T01:23:44;5.20;99.90
19928;DHT22;10126;50.876;4.470;2022-11-20T01:25:45;5.10;99.90
19928;DHT22;10126;50.876;4.470;2022-11-20T01:27:45;5.20;99.90
19928;DHT22;10126;50.876;4.470;2022-11-20T01:29:46;5.20;99.90
19928;DHT22;10126;50.876;4.470;2022-11-20T01:31:47;5.20;99.90
19928;DHT22;10126;50.876;4.470;2022-11-20T01:33:50;5.30;99.90
19928;DHT22;10126;50.876;4.470;2022-11-20T01:35:51;5.40;99.90
19928;DHT22;10126;50.876;4.470;2022-11-20T01:37:52;5.50;99.90
19928;DHT22;10126;50.876;4.470;2022-11-20T01:39:52;5.60;99.90
19928;DHT22;10126;50.876;4.470;2022-11-20T01:41:54;5.50;99.90
19928;DHT22;10126;50.876;4.470;2022-11-20T01:44:16;5.50;99.90
19928;DHT22;10126;50.876;4.470;2022-11-20T01:46:18;5.40;99.90
19928;DHT22;10126;50.876;4.470;2022-11-20T01:48:22;5.40;99.90
19928;DHT22;10126;50.876;4.470;2022-11-20T01:50:26;5.40;99.90
19928;DHT22;10126;50.876;4.470;2022-11-20T01:52:42;5.30;99.90
19928;DHT22;10126;50.876;4.470;2022-11-20T01:54:48;5.30;99.90
19928;DHT22;10126;50.876;4.470;2022-11-20T01:56:53;5.30;99.90
19928;DHT22;10126;50.876;4.470;2022-11-20T01:58:58;5.50;99.90
19928;DHT22;10126;50.876;4.470;2022-11-20T02:01:01;5.50;99.90
19928;DHT22;10126;50.876;4.470;2022-11-20T02:03:07;5.50;99.90
19928;DHT22;10126;50.876;4.470;2022-11-20T02:05:35;5.40;99.90
19928;DHT22;10126;50.876;4.470;2022-11-20T02:07:37;5.40;99.90
19928;DHT22;10126;50.876;4.470;2022-11-20T02:09:38;5.40;99.90
19928;DHT22;10126;50.876;4.470;2022-11-20T02:11:38;5.50;99.90
19928;DHT22;10126;50.876;4.470;2022-11-20T02:13:39;5.40;99.90
19928;DHT22;10126;50.876;4.470;2022-11-20T02:15:44;5.40;99.90
19928;DHT22;10126;50.876;4.470;2022-11-20T02:17:44;5.50;99.90
19928;DHT22;10126;50.876;4.470;2022-11-20T02:19:45;5.50;99.90
19928;DHT22;10126;50.876;4.470;2022-11-20T02:21:56;5.40;99.90
19928;DHT22;10126;50.876;4.470;2022-11-20T02:26:05;5.30;99.90
19928;DHT22;10126;50.876;4.470;2022-11-20T02:28:07;5.30;99.90
19928;DHT22;10126;50.876;4.470;2022-11-20T02:30:08;5.20;99.90
19928;DHT22;10126;50.876;4.470;2022-11-20T02:32:29;5.10;99.90
19928;DHT22;10126;50.876;4.470;2022-11-20T02:34:30;5.20;99.90
19928;DHT22;10126;50.876;4.470;2022-11-20T02:36:32;5.10;99.90
19928;DHT22;10126;50.876;4.470;2022-11-20T02:38:33;5.20;99.90
19928;DHT22;10126;50.876;4.470;2022-11-20T02:40:34;5.20;99.90
19928;DHT22;10126;50.876;4.470;2022-11-20T02:42:36;5.20;99.90
19928;DHT22;10126;50.876;4.470;2022-11-20T02:44:36;5.10;99.90
19928;DHT22;10126;50.876;4.470;2022-11-20T02:46:37;5.10;99.90
19928;DHT22;10126;50.876;4.470;2022-11-20T02:48:38;5.10;99.90
19928;DHT22;10126;50.876;4.470;2022-11-20T02:50:39;5.20;99.90
19928;DHT22;10126;50.876;4.470;2022-11-20T02:52:40;5.30;99.90
19928;DHT22;10126;50.876;4.470;2022-11-20T02:54:40;5.30;99.90
19928;DHT22;10126;50.876;4.470;2022-11-20T02:56:41;5.20;99.90
19928;DHT22;10126;50.876;4.470;2022-11-20T02:58:42;5.30;99.90
19928;DHT22;10126;50.876;4.470;2022-11-20T03:00:42;5.30;99.90
19928;DHT22;10126;50.876;4.470;2022-11-20T03:02:43;5.20;99.90
19928;DHT22;10126;50.876;4.470;2022-11-20T03:04:44;5.30;99.90
19928;DHT22;10126;50.876;4.470;2022-11-20T03:06:44;5.20;99.90
19928;DHT22;10126;50.876;4.470;2022-11-20T03:08:45;5.20;99.90
19928;DHT22;10126;50.876;4.470;2022-11-20T03:10:45;5.30;99.90
19928;DHT22;10126;50.876;4.470;2022-11-20T03:12:46;5.30;99.90
19928;DHT22;10126;50.876;4.470;2022-11-20T03:14:46;5.30;99.90
19928;DHT22;10126;50.876;4.470;2022-11-20T03:16:47;5.40;99.90
19928;DHT22;10126;50.876;4.470;2022-11-20T03:18:48;5.10;99.90
19928;DHT22;10126;50.876;4.470;2022-11-20T03:20:49;5.20;99.90
19928;DHT22;10126;50.876;4.470;2022-11-20T03:22:49;5.20;99.90
19928;DHT22;10126;50.876;4.470;2022-11-20T03:24:50;5.30;99.90
19928;DHT22;10126;50.876;4.470;2022-11-20T03:26:51;5.20;99.90
19928;DHT22;10126;50.876;4.470;2022-11-20T03:28:56;5.10;99.90
19928;DHT22;10126;50.876;4.470;2022-11-20T03:31:09;5.20;99.90
19928;DHT22;10126;50.876;4.470;2022-11-20T03:33:10;5.10;99.90
19928;DHT22;10126;50.876;4.470;2022-11-20T03:35:10;5.00;99.90
19928;DHT22;10126;50.876;4.470;2022-11-20T03:37:11;5.10;99.90
19928;DHT22;10126;50.876;4.470;2022-11-20T03:39:12;4.90;99.90
19928;DHT22;10126;50.876;4.470;2022-11-20T03:41:21;5.00;99.90
19928;DHT22;10126;50.876;4.470;2022-11-20T03:43:21;4.90;99.90
19928;DHT22;10126;50.876;4.470;2022-11-20T03:45:22;4.80;99.90
19928;DHT22;10126;50.876;4.470;2022-11-20T03:47:23;4.80;99.90
19928;DHT22;10126;50.876;4.470;2022-11-20T03:49:23;4.80;99.90
19928;DHT22;10126;50.876;4.470;2022-11-20T03:51:31;4.90;99.90
19928;DHT22;10126;50.876;4.470;2022-11-20T03:53:31;4.90;99.90
19928;DHT22;10126;50.876;4.470;2022-11-20T03:55:32;4.90;99.90
19928;DHT22;10126;50.876;4.470;2022-11-20T03:57:32;4.90;99.90
19928;DHT22;10126;50.876;4.470;2022-11-20T03:59:33;5.00;99.90
19928;DHT22;10126;50.876;4.470;2022-11-20T04:01:36;5.10;99.90
19928;DHT22;10126;50.876;4.470;2022-11-20T04:03:39;5.40;99.90
19928;DHT22;10126;50.876;4.470;2022-11-20T04:05:40;5.40;99.90
19928;DHT22;10126;50.876;4.470;2022-11-20T04:07:40;5.50;99.90
19928;DHT22;10126;50.876;4.470;2022-11-20T04:09:41;5.50;99.90
19928;DHT22;10126;50.876;4.470;2022-11-20T04:11:42;5.40;99.90
19928;DHT22;10126;50.876;4.470;2022-11-20T04:13:47;5.20;99.90
19928;DHT22;10126;50.876;4.470;2022-11-20T04:15:47;5.30;99.90
19928;DHT22;10126;50.876;4.470;2022-11-20T04:17:48;5.30;99.90
19928;DHT22;10126;50.876;4.470;2022-11-20T04:19:49;5.40;99.90
19928;DHT22;10126;50.876;4.470;2022-11-20T04:21:49;5.60;99.90
19928;DHT22;10126;50.876;4.470;2022-11-20T04:23:51;5.70;99.90
19928;DHT22;10126;50.876;4.470;2022-11-20T04:25:53;5.60;99.90
19928;DHT22;10126;50.876;4.470;2022-11-20T04:27:53;5.50;99.90
19928;DHT22;10126;50.876;4.470;2022-11-20T04:29:54;5.60;99.90
19928;DHT22;10126;50.876;4.470;2022-11-20T04:31:55;5.70;99.90
19928;DHT22;10126;50.876;4.470;2022-11-20T04:33:58;5.80;99.90
19928;DHT22;10126;50.876;4.470;2022-11-20T04:36:05;5.70;99.90
19928;DHT22;10126;50.876;4.470;2022-11-20T04:38:06;5.80;99.90
19928;DHT22;10126;50.876;4.470;2022-11-20T04:40:07;5.80;99.90
19928;DHT22;10126;50.876;4.470;2022-11-20T04:42:09;5.90;99.90
19928;DHT22;10126;50.876;4.470;2022-11-20T04:44:28;6.00;99.90
19928;DHT22;10126;50.876;4.470;2022-11-20T04:46:34;6.10;99.90
19928;DHT22;10126;50.876;4.470;2022-11-20T04:48:35;6.10;99.90
19928;DHT22;10126;50.876;4.470;2022-11-20T04:50:40;6.10;99.90
19928;DHT22;10126;50.876;4.470;2022-11-20T04:52:40;6.10;99.90
19928;DHT22;10126;50.876;4.470;2022-11-20T04:54:41;6.20;99.90
19928;DHT22;10126;50.876;4.470;2022-11-20T04:56:41;6.20;99.90
19928;DHT22;10126;50.876;4.470;2022-11-20T04:58:42;6.30;99.90
19928;DHT22;10126;50.876;4.470;2022-11-20T05:00:43;6.20;99.90
19928;DHT22;10126;50.876;4.470;2022-11-20T05:02:44;6.20;99.90
19928;DHT22;10126;50.876;4.470;2022-11-20T05:04:44;6.30;99.90
19928;DHT22;10126;50.876;4.470;2022-11-20T05:06:45;6.30;99.90
19928;DHT22;10126;50.876;4.470;2022-11-20T05:08:46;6.40;99.90
19928;DHT22;10126;50.876;4.470;2022-11-20T05:10:47;6.40;99.90
19928;DHT22;10126;50.876;4.470;2022-11-20T05:12:47;6.50;99.90
19928;DHT22;10126;50.876;4.470;2022-11-20T05:14:48;6.50;99.90
19928;DHT22;10126;50.876;4.470;2022-11-20T05:16:48;6.60;99.90
19928;DHT22;10126;50.876;4.470;2022-11-20T05:18:51;6.60;99.90
19928;DHT22;10126;50.876;4.470;2022-11-20T05:20:56;6.50;99.90
19928;DHT22;10126;50.876;4.470;2022-11-20T05:22:57;6.40;99.90
19928;DHT22;10126;50.876;4.470;2022-11-20T05:24:57;6.40;99.90
19928;DHT22;10126;50.876;4.470;2022-11-20T05:26:58;6.50;99.90
19928;DHT22;10126;50.876;4.470;2022-11-20T05:28:59;6.40;99.90
19928;DHT22;10126;50.876;4.470;2022-11-20T05:31:09;6.60;99.90
19928;DHT22;10126;50.876;4.470;2022-11-20T05:33:10;6.70;99.90
19928;DHT22;10126;50.876;4.470;2022-11-20T05:35:11;6.70;99.90
19928;DHT22;10126;50.876;4.470;2022-11-20T05:37:11;6.50;99.90
19928;DHT22;10126;50.876;4.470;2022-11-20T05:39:12;6.60;99.90
19928;DHT22;10126;50.876;4.470;2022-11-20T05:41:15;6.60;99.90
19928;DHT22;10126;50.876;4.470;2022-11-20T05:43:16;6.70;99.90
19928;DHT22;10126;50.876;4.470;2022-11-20T05:45:16;6.80;99.90
19928;DHT22;10126;50.876;4.470;2022-11-20T05:47:17;6.90;99.90
19928;DHT22;10126;50.876;4.470;2022-11-20T05:49:17;7.00;99.90
19928;DHT22;10126;50.876;4.470;2022-11-20T05:51:18;6.90;99.90
19928;DHT22;10126;50.876;4.470;2022-11-20T05:53:19;6.70;99.90
19928;DHT22;10126;50.876;4.470;2022-11-20T05:55:20;6.60;99.90
19928;DHT22;10126;50.876;4.470;2022-11-20T05:57:21;6.60;99.90
19928;DHT22;10126;50.876;4.470;2022-11-20T05:59:21;6.60;99.90
19928;DHT22;10126;50.876;4.470;2022-11-20T06:01:24;6.50;99.90
19928;DHT22;10126;50.876;4.470;2022-11-20T06:03:25;6.50;99.90
19928;DHT22;10126;50.876;4.470;2022-11-20T06:05:26;6.50;99.90
19928;DHT22;10126;50.876;4.470;2022-11-20T06:07:26;6.50;99.90
19928;DHT22;10126;50.876;4.470;2022-11-20T06:09:27;6.50;99.90
19928;DHT22;10126;50.876;4.470;2022-11-20T06:11:27;6.50;99.90
19928;DHT22;10126;50.876;4.470;2022-11-20T06:13:31;6.50;99.90
19928;DHT22;10126;50.876;4.470;2022-11-20T06:15:32;6.50;99.90
19928;DHT22;10126;50.876;4.470;2022-11-20T06:17:32;6.60;99.90
19928;DHT22;10126;50.876;4.470;2022-11-20T06:19:33;6.60;99.90
19928;DHT22;10126;50.876;4.470;2022-11-20T06:21:34;6.60;99.90
19928;DHT22;10126;50.876;4.470;2022-11-20T06:23:35;6.60;99.90
19928;DHT22;10126;50.876;4.470;2022-11-20T06:25:40;6.60;99.90
19928;DHT22;10126;50.876;4.470;2022-11-20T06:27:41;6.30;99.90
19928;DHT22;10126;50.876;4.470;2022-11-20T06:29:41;6.40;99.90
19928;DHT22;10126;50.876;4.470;2022-11-20T06:31:42;6.30;99.90
19928;DHT22;10126;50.876;4.470;2022-11-20T06:33:43;6.40;99.90
19928;DHT22;10126;50.876;4.470;2022-11-20T06:35:43;6.40;99.90
19928;DHT22;10126;50.876;4.470;2022-11-20T06:37:44;6.40;99.90
19928;DHT22;10126;50.876;4.470;2022-11-20T06:39:45;6.50;99.90
19928;DHT22;10126;50.876;4.470;2022-11-20T06:41:45;6.50;99.90
19928;DHT22;10126;50.876;4.470;2022-11-20T06:43:46;6.60;99.90
19928;DHT22;10126;50.876;4.470;2022-11-20T06:45:55;6.50;99.90
19928;DHT22;10126;50.876;4.470;2022-11-20T06:47:57;6.40;99.90
19928;DHT22;10126;50.876;4.470;2022-11-20T06:49:58;6.30;99.90
19928;DHT22;10126;50.876;4.470;2022-11-20T06:51:59;6.40;99.90
19928;DHT22;10126;50.876;4.470;2022-11-20T06:54:00;6.30;99.90
19928;DHT22;10126;50.876;4.470;2022-11-20T06:56:01;6.40;99.90
19928;DHT22;10126;50.876;4.470;2022-11-20T06:58:02;6.40;99.90
19928;DHT22;10126;50.876;4.470;2022-11-20T07:00:03;6.40;99.90
19928;DHT22;10126;50.876;4.470;2022-11-20T07:02:04;6.40;99.90
19928;DHT22;10126;50.876;4.470;2022-11-20T07:04:04;6.50;99.90
19928;DHT22;10126;50.876;4.470;2022-11-20T07:06:06;6.50;99.90
19928;DHT22;10126;50.876;4.470;2022-11-20T07:08:06;6.60;99.90
19928;DHT22;10126;50.876;4.470;2022-11-20T07:10:07;6.50;99.90
19928;DHT22;10126;50.876;4.470;2022-11-20T07:12:08;6.70;99.90
19928;DHT22;10126;50.876;4.470;2022-11-20T07:14:09;6.60;99.90
19928;DHT22;10126;50.876;4.470;2022-11-20T07:16:09;6.60;99.90
19928;DHT22;10126;50.876;4.470;2022-11-20T07:18:10;6.50;99.90
19928;DHT22;10126;50.876;4.470;2022-11-20T07:20:12;6.50;99.90
19928;DHT22;10126;50.876;4.470;2022-11-20T07:22:13;6.30;99.90
19928;DHT22;10126;50.876;4.470;2022-11-20T07:24:13;6.40;99.90
19928;DHT22;10126;50.876;4.470;2022-11-20T07:26:14;6.50;99.90
19928;DHT22;10126;50.876;4.470;2022-11-20T07:28:14;6.70;99.90
19928;DHT22;10126;50.876;4.470;2022-11-20T07:30:16;6.70;99.90
19928;DHT22;10126;50.876;4.470;2022-11-20T07:32:16;6.70;99.90
19928;DHT22;10126;50.876;4.470;2022-11-20T07:34:17;6.70;99.90
19928;DHT22;10126;50.876;4.470;2022-11-20T07:36:18;6.80;99.90
19928;DHT22;10126;50.876;4.470;2022-11-20T07:38:18;6.80;99.90
19928;DHT22;10126;50.876;4.470;2022-11-20T07:40:19;6.80;99.90
19928;DHT22;10126;50.876;4.470;2022-11-20T07:42:20;6.90;99.90
19928;DHT22;10126;50.876;4.470;2022-11-20T07:44:21;7.00;99.90
19928;DHT22;10126;50.876;4.470;2022-11-20T07:46:21;7.10;99.90
19928;DHT22;10126;50.876;4.470;2022-11-20T07:48:23;7.20;99.90
19928;DHT22;10126;50.876;4.470;2022-11-20T07:50:24;7.30;99.90
19928;DHT22;10126;50.876;4.470;2022-11-20T07:52:24;7.30;99.90
19928;DHT22;10126;50.876;4.470;2022-11-20T07:54:25;7.40;99.90
19928;DHT22;10126;50.876;4.470;2022-11-20T07:56:25;7.40;99.90
19928;DHT22;10126;50.876;4.470;2022-11-20T07:58:26;7.30;99.90
19928;DHT22;10126;50.876;4.470;2022-11-20T08:00:28;7.30;99.90
19928;DHT22;10126;50.876;4.470;2022-11-20T08:02:29;7.40;99.90
19928;DHT22;10126;50.876;4.470;2022-11-20T08:04:30;7.40;99.90
19928;DHT22;10126;50.876;4.470;2022-11-20T08:06:31;7.50;99.90
19928;DHT22;10126;50.876;4.470;2022-11-20T08:08:31;7.60;99.90
19928;DHT22;10126;50.876;4.470;2022-11-20T08:10:32;7.50;99.90
19928;DHT22;10126;50.876;4.470;2022-11-20T08:12:33;7.60;99.90
19928;DHT22;10126;50.876;4.470;2022-11-20T08:14:52;7.60;99.90
19928;DHT22;10126;50.876;4.470;2022-11-20T08:16:52;7.60;99.90
19928;DHT22;10126;50.876;4.470;2022-11-20T08:18:53;7.80;99.90
19928;DHT22;10126;50.876;4.470;2022-11-20T08:20:54;7.70;99.90
19928;DHT22;10126;50.876;4.470;2022-11-20T08:23:02;7.90;99.90
19928;DHT22;10126;50.876;4.470;2022-11-20T08:25:04;7.90;99.90
19928;DHT22;10126;50.876;4.470;2022-11-20T08:27:04;7.90;99.90
19928;DHT22;10126;50.876;4.470;2022-11-20T08:29:05;7.90;99.90
19928;DHT22;10126;50.876;4.470;2022-11-20T08:31:06;8.00;99.90
19928;DHT22;10126;50.876;4.470;2022-11-20T08:33:08;8.10;99.90
19928;DHT22;10126;50.876;4.470;2022-11-20T08:35:09;8.30;99.90
19928;DHT22;10126;50.876;4.470;2022-11-20T08:37:09;8.50;99.90
19928;DHT22;10126;50.876;4.470;2022-11-20T08:39:14;8.40;99.90
19928;DHT22;10126;50.876;4.470;2022-11-20T08:41:14;8.30;99.90
19928;DHT22;10126;50.876;4.470;2022-11-20T08:43:24;8.50;99.90
19928;DHT22;10126;50.876;4.470;2022-11-20T08:45:25;8.60;99.90
19928;DHT22;10126;50.876;4.470;2022-11-20T08:47:25;8.60;99.90
19928;DHT22;10126;50.876;4.470;2022-11-20T08:49:26;8.50;99.90
19928;DHT22;10126;50.876;4.470;2022-11-20T08:51:27;8.40;99.90
19928;DHT22;10126;50.876;4.470;2022-11-20T08:53:27;8.50;99.90
19928;DHT22;10126;50.876;4.470;2022-11-20T08:55:28;8.60;99.90
19928;DHT22;10126;50.876;4.470;2022-11-20T08:57:32;8.50;99.90
19928;DHT22;10126;50.876;4.470;2022-11-20T08:59:33;8.40;99.90
19928;DHT22;10126;50.876;4.470;2022-11-20T09:01:34;8.40;99.90
19928;DHT22;10126;50.876;4.470;2022-11-20T09:03:35;8.60;99.90
19928;DHT22;10126;50.876;4.470;2022-11-20T09:05:35;8.40;99.90
19928;DHT22;10126;50.876;4.470;2022-11-20T09:07:37;8.50;99.90
19928;DHT22;10126;50.876;4.470;2022-11-20T09:09:37;8.50;99.90
19928;DHT22;10126;50.876;4.470;2022-11-20T09:11:38;8.50;99.90
19928;DHT22;10126;50.876;4.470;2022-11-20T09:13:38;8.60;99.90
19928;DHT22;10126;50.876;4.470;2022-11-20T09:15:39;8.50;99.90
19928;DHT22;10126;50.876;4.470;2022-11-20T09:17:40;8.60;99.90
19928;DHT22;10126;50.876;4.470;2022-11-20T09:19:40;8.30;99.90
19928;DHT22;10126;50.876;4.470;2022-11-20T09:21:41;8.40;99.90
19928;DHT22;10126;50.876;4.470;2022-11-20T09:23:42;8.90;99.90
19928;DHT22;10126;50.876;4.470;2022-11-20T09:25:43;8.80;99.90
19928;DHT22;10126;50.876;4.470;2022-11-20T09:27:43;8.80;99.90
19928;DHT22;10126;50.876;4.470;2022-11-20T09:29:46;8.90;99.90
19928;DHT22;10126;50.876;4.470;2022-11-20T09:31:46;8.90;99.90
19928;DHT22;10126;50.876;4.470;2022-11-20T09:33:47;8.80;99.90
19928;DHT22;10126;50.876;4.470;2022-11-20T09:35:47;8.90;99.90
19928;DHT22;10126;50.876;4.470;2022-11-20T09:37:48;9.00;99.90
19928;DHT22;10126;50.876;4.470;2022-11-20T09:39:48;8.90;99.90
19928;DHT22;10126;50.876;4.470;2022-11-20T09:41:54;9.10;99.90
19928;DHT22;10126;50.876;4.470;2022-11-20T09:44:28;9.20;99.90
19928;DHT22;10126;50.876;4.470;2022-11-20T09:46:39;9.40;99.90
19928;DHT22;10126;50.876;4.470;2022-11-20T09:50:57;9.40;99.90
19928;DHT22;10126;50.876;4.470;2022-11-20T09:53:13;9.50;99.90
19928;DHT22;10126;50.876;4.470;2022-11-20T09:55:16;9.70;99.90
19928;DHT22;10126;50.876;4.470;2022-11-20T09:57:21;9.60;99.90
19928;DHT22;10126;50.876;4.470;2022-11-20T09:59:41;9.50;99.90
19928;DHT22;10126;50.876;4.470;2022-11-20T10:01:43;9.50;99.90
19928;DHT22;10126;50.876;4.470;2022-11-20T10:05:54;9.80;99.90
19928;DHT22;10126;50.876;4.470;2022-11-20T10:19:23;10.00;99.90
19928;DHT22;10126;50.876;4.470;2022-11-20T10:29:02;10.00;99.90
19928;DHT22;10126;50.876;4.470;2022-11-20T10:31:11;9.80;99.90
19928;DHT22;10126;50.876;4.470;2022-11-20T10:33:21;9.70;99.90
19928;DHT22;10126;50.876;4.470;2022-11-20T10:35:50;9.70;99.90
19928;DHT22;10126;50.876;4.470;2022-11-20T10:37:54;9.70;99.90
19928;DHT22;10126;50.876;4.470;2022-11-20T10:40:06;10.10;99.90
19928;DHT22;10126;50.876;4.470;2022-11-20T10:42:26;10.20;99.90
19928;DHT22;10126;50.876;4.470;2022-11-20T10:44:29;10.10;99.90
19928;DHT22;10126;50.876;4.470;2022-11-20T10:46:49;10.20;99.90
19928;DHT22;10126;50.876;4.470;2022-11-20T10:48:51;10.30;99.90
19928;DHT22;10126;50.876;4.470;2022-11-20T10:55:58;10.60;99.90
19928;DHT22;10126;50.876;4.470;2022-11-20T11:00:25;10.70;99.90
19928;DHT22;10126;50.876;4.470;2022-11-20T11:02:39;10.70;99.90
19928;DHT22;10126;50.876;4.470;2022-11-20T11:04:45;10.90;99.90
19928;DHT22;10126;50.876;4.470;2022-11-20T11:06:48;11.00;99.90
19928;DHT22;10126;50.876;4.470;2022-11-20T11:08:51;10.80;99.90
19928;DHT22;10126;50.876;4.470;2022-11-20T11:10:55;11.00;99.90
19928;DHT22;10126;50.876;4.470;2022-11-20T11:12:57;11.10;99.90
19928;DHT22;10126;50.876;4.470;2022-11-20T11:14:58;10.70;99.90
19928;DHT22;10126;50.876;4.470;2022-11-20T11:16:58;10.60;99.90
19928;DHT22;10126;50.876;4.470;2022-11-20T11:19:06;10.50;99.90
19928;DHT22;10126;50.876;4.470;2022-11-20T11:21:09;10.60;99.90
19928;DHT22;10126;50.876;4.470;2022-11-20T11:23:35;10.70;99.90
19928;DHT22;10126;50.876;4.470;2022-11-20T11:25:37;10.60;99.90
19928;DHT22;10126;50.876;4.470;2022-11-20T11:27:48;10.50;99.90
19928;DHT22;10126;50.876;4.470;2022-11-20T11:29:49;10.60;99.90
19928;DHT22;10126;50.876;4.470;2022-11-20T11:31:50;10.50;99.90
19928;DHT22;10126;50.876;4.470;2022-11-20T11:33:51;10.50;99.90
19928;DHT22;10126;50.876;4.470;2022-11-20T11:35:56;10.30;99.90
19928;DHT22;10126;50.876;4.470;2022-11-20T11:38:06;10.10;99.90
19928;DHT22;10126;50.876;4.470;2022-11-20T11:40:10;10.10;99.90
19928;DHT22;10126;50.876;4.470;2022-11-20T11:42:15;10.10;99.90
19928;DHT22;10126;50.876;4.470;2022-11-20T11:44:19;10.20;99.90
19928;DHT22;10126;50.876;4.470;2022-11-20T11:46:40;10.20;99.90
19928;DHT22;10126;50.876;4.470;2022-11-20T11:51:08;10.10;99.90
19928;DHT22;10126;50.876;4.470;2022-11-20T11:53:15;9.90;99.90
19928;DHT22;10126;50.876;4.470;2022-11-20T11:55:35;9.90;99.90
19928;DHT22;10126;50.876;4.470;2022-11-20T11:57:41;10.10;99.90
19928;DHT22;10126;50.876;4.470;2022-11-20T12:00:14;10.20;99.90
19928;DHT22;10126;50.876;4.470;2022-11-20T12:02:47;10.10;99.90
19928;DHT22;10126;50.876;4.470;2022-11-20T12:04:46;10.00;99.90
19928;DHT22;10126;50.876;4.470;2022-11-20T12:06:58;10.10;99.90
19928;DHT22;10126;50.876;4.470;2022-11-20T12:09:08;10.10;99.90
19928;DHT22;10126;50.876;4.470;2022-11-20T12:14:15;9.80;99.90
19928;DHT22;10126;50.876;4.470;2022-11-20T12:16:19;9.80;99.90
19928;DHT22;10126;50.876;4.470;2022-11-20T12:18:22;9.80;99.90
19928;DHT22;10126;50.876;4.470;2022-11-20T12:20:28;9.70;99.90
19928;DHT22;10126;50.876;4.470;2022-11-20T12:22:47;9.60;99.90
19928;DHT22;10126;50.876;4.470;2022-11-20T12:25:16;9.70;99.90
19928;DHT22;10126;50.876;4.470;2022-11-20T12:29:56;9.60;99.90
19928;DHT22;10126;50.876;4.470;2022-11-20T12:43:21;9.30;99.90
19928;DHT22;10126;50.876;4.470;2022-11-20T12:46:08;9.30;99.90
19928;DHT22;10126;50.876;4.470;2022-11-20T12:48:36;9.20;99.90
19928;DHT22;10126;50.876;4.470;2022-11-20T12:52:57;9.30;99.90
19928;DHT22;10126;50.876;4.470;2022-11-20T12:57:38;9.30;99.90
19928;DHT22;10126;50.876;4.470;2022-11-20T13:02:18;9.10;99.90
19928;DHT22;10126;50.876;4.470;2022-11-20T13:06:29;9.20;99.90
19928;DHT22;10126;50.876;4.470;2022-11-20T13:08:39;9.20;99.90
19928;DHT22;10126;50.876;4.470;2022-11-20T13:11:07;9.30;99.90
19928;DHT22;10126;50.876;4.470;2022-11-20T13:13:14;9.30;99.90
19928;DHT22;10126;50.876;4.470;2022-11-20T13:17:52;10.00;99.90
19928;DHT22;10126;50.876;4.470;2022-11-20T13:19:56;10.20;99.90
19928;DHT22;10126;50.876;4.470;2022-11-20T13:21:59;9.90;99.90
19928;DHT22;10126;50.876;4.470;2022-11-20T13:24:06;9.80;99.90
19928;DHT22;10126;50.876;4.470;2022-11-20T13:26:33;9.70;99.90
19928;DHT22;10126;50.876;4.470;2022-11-20T13:28:35;9.50;99.90
19928;DHT22;10126;50.876;4.470;2022-11-20T13:30:47;9.30;99.90
19928;DHT22;10126;50.876;4.470;2022-11-20T13:33:20;9.30;99.90
19928;DHT22;10126;50.876;4.470;2022-11-20T13:35:35;9.30;99.90
19928;DHT22;10126;50.876;4.470;2022-11-20T13:37:37;9.10;99.90
19928;DHT22;10126;50.876;4.470;2022-11-20T13:39:38;9.10;99.90
19928;DHT22;10126;50.876;4.470;2022-11-20T13:41:39;9.10;99.90
19928;DHT22;10126;50.876;4.470;2022-11-20T13:43:41;9.30;99.90
19928;DHT22;10126;50.876;4.470;2022-11-20T13:45:42;9.10;99.90
19928;DHT22;10126;50.876;4.470;2022-11-20T13:47:48;9.00;99.90
19928;DHT22;10126;50.876;4.470;2022-11-20T13:49:49;9.00;99.90
19928;DHT22;10126;50.876;4.470;2022-11-20T13:51:57;9.00;99.90
19928;DHT22;10126;50.876;4.470;2022-11-20T13:56:24;8.90;99.90
19928;DHT22;10126;50.876;4.470;2022-11-20T13:58:48;9.00;99.90
19928;DHT22;10126;50.876;4.470;2022-11-20T14:01:00;9.10;99.90
19928;DHT22;10126;50.876;4.470;2022-11-20T14:05:37;9.10;99.90
19928;DHT22;10126;50.876;4.470;2022-11-20T14:07:41;9.20;99.90
19928;DHT22;10126;50.876;4.470;2022-11-20T14:09:54;9.30;99.90
19928;DHT22;10126;50.876;4.470;2022-11-20T14:11:55;9.30;99.90
19928;DHT22;10126;50.876;4.470;2022-11-20T14:14:13;9.30;99.90
19928;DHT22;10126;50.876;4.470;2022-11-20T14:16:20;9.30;99.90
19928;DHT22;10126;50.876;4.470;2022-11-20T14:18:21;9.40;99.90
19928;DHT22;10126;50.876;4.470;2022-11-20T14:20:26;9.40;99.90
19928;DHT22;10126;50.876;4.470;2022-11-20T14:22:28;9.20;99.90